Time;durP1;ratioP1;P1;durP2;ratioP2;P2;SDS_P1;SDS_P2;PMS_P1;PMS_P2;Temp;Humidity;BMP_temperature;BMP_pressure;BME280_temperature;BME280_humidity;BME280_pressure;Samples;Min_cycle;Max_cycle;Signal;HPM_P1;HPM_P2
2022/12/19 00:01:17;;;;;;;3.10;1.20;;;;;;;;;;1763858;79;22167;-75
2022/12/19 00:03:46;;;;;;;3.40;1.43;;;;;;;;;;1761379;79;21364;-75
2022/12/19 00:06:12;;;;;;;3.33;1.23;;;;;;;;;;1765662;79;21055;-75
2022/12/19 00:08:42;;;;;;;3.77;1.60;;;;;;;;;;1767465;79;21045;-75
2022/12/19 00:11:11;;;;;;;5.20;2.03;;;;;;;;;;1768821;79;21124;-75
2022/12/19 00:13:37;;;;;;;3.57;1.37;;;;;;;;;;1762445;79;21822;-75
2022/12/19 00:16:05;;;;;;;4.73;1.47;;;;;;;;;;1767123;79;21009;-75
2022/12/19 00:18:31;;;;;;;2.97;1.40;;;;;;;;;;1768569;79;21064;-75
2022/12/19 00:20:59;;;;;;;7.80;1.20;;;;;;;;;;1766926;79;21453;-75
2022/12/19 00:23:25;;;;;;;3.03;1.27;;;;;;;;;;1765951;79;21545;-75
2022/12/19 00:25:52;;;;;;;3.17;1.17;;;;;;;;;;1744338;79;21808;-75
2022/12/19 00:28:18;;;;;;;3.63;0.90;;;;;;;;;;1763103;79;21042;-75
2022/12/19 00:30:44;;;;;;;2.47;1.17;;;;;;;;;;1767143;79;21820;-75
2022/12/19 00:33:10;;;;;;;4.73;1.40;;;;;;;;;;1764314;79;21037;-75
2022/12/19 00:35:37;;;;;;;3.13;1.00;;;;;;;;;;1765442;79;21115;-75
2022/12/19 00:38:03;;;;;;;3.57;1.30;;;;;;;;;;1768514;79;21704;-75
2022/12/19 00:40:29;;;;;;;3.67;1.13;;;;;;;;;;1770949;79;21449;-75
2022/12/19 00:42:55;;;;;;;3.90;1.10;;;;;;;;;;1768187;79;21886;-75
2022/12/19 00:45:22;;;;;;;4.33;1.03;;;;;;;;;;1770247;79;20981;-75
2022/12/19 00:47:48;;;;;;;2.80;1.13;;;;;;;;;;1727825;81;21526;-75
2022/12/19 00:50:14;;;;;;;4.73;1.10;;;;;;;;;;1701966;82;21948;-75
2022/12/19 00:52:40;;;;;;;5.17;1.53;;;;;;;;;;1699868;82;22344;-75
2022/12/19 00:55:07;;;;;;;3.63;1.27;;;;;;;;;;1689565;83;21099;-75
2022/12/19 00:57:33;;;;;;;3.67;1.33;;;;;;;;;;1704904;82;21046;-75
2022/12/19 01:00:01;;;;;;;3.03;1.00;;;;;;;;;;1727842;81;21351;-75
2022/12/19 01:02:27;;;;;;;4.17;1.30;;;;;;;;;;1726922;81;21806;-76
2022/12/19 01:04:54;;;;;;;2.83;1.27;;;;;;;;;;1694706;82;21076;-77
2022/12/19 01:07:20;;;;;;;3.93;1.67;;;;;;;;;;1724100;81;21093;-76
2022/12/19 01:09:46;;;;;;;3.00;1.27;;;;;;;;;;1726423;81;21108;-76
2022/12/19 01:14:57;;;;;;;5.12;1.10;;;;;;;;;;1728434;81;21954;-76
2022/12/19 01:17:23;;;;;;;3.20;1.23;;;;;;;;;;1724333;81;21069;-76
2022/12/19 01:19:51;;;;;;;3.90;1.10;;;;;;;;;;1696115;82;21099;-76
2022/12/19 01:22:18;;;;;;;4.67;1.50;;;;;;;;;;1708904;82;21080;-76
2022/12/19 01:24:45;;;;;;;2.60;1.20;;;;;;;;;;1729972;81;21084;-76
2022/12/19 01:27:13;;;;;;;1.83;0.90;;;;;;;;;;1702573;82;22674;-76
2022/12/19 01:29:40;;;;;;;3.73;1.20;;;;;;;;;;1730392;81;21105;-76
2022/12/19 01:32:06;;;;;;;4.23;1.30;;;;;;;;;;1729020;81;21126;-77
2022/12/19 01:34:32;;;;;;;5.27;1.50;;;;;;;;;;1702332;82;21088;-77
2022/12/19 01:36:58;;;;;;;4.27;1.30;;;;;;;;;;1689902;83;21097;-77
2022/12/19 01:39:25;;;;;;;5.83;2.07;;;;;;;;;;1700724;82;21823;-76
2022/12/19 01:41:51;;;;;;;4.97;1.20;;;;;;;;;;1729084;81;21045;-77
2022/12/19 01:44:17;;;;;;;5.47;1.63;;;;;;;;;;1727305;81;21117;-77
2022/12/19 01:46:48;;;;;;;3.17;1.30;;;;;;;;;;1766542;79;21091;-77
2022/12/19 01:49:23;;;;;;;5.00;1.30;;;;;;;;;;1762965;79;21516;-77
2022/12/19 01:51:49;;;;;;;3.93;1.40;;;;;;;;;;1762910;79;21931;-76
2022/12/19 01:54:18;;;;;;;3.93;1.27;;;;;;;;;;1762165;79;21117;-76
2022/12/19 01:56:49;;;;;;;2.57;1.20;;;;;;;;;;1762344;79;21548;-77
2022/12/19 01:59:21;;;;;;;4.87;1.30;;;;;;;;;;1765901;79;21064;-76
2022/12/19 02:01:48;;;;;;;7.83;1.80;;;;;;;;;;1763349;79;21017;-77
2022/12/19 02:04:14;;;;;;;4.30;1.20;;;;;;;;;;1759234;79;21834;-77
2022/12/19 02:06:45;;;;;;;7.47;1.90;;;;;;;;;;1765472;79;21044;-76
2022/12/19 02:09:10;;;;;;;5.60;1.70;;;;;;;;;;1719777;81;21568;-76
2022/12/19 02:11:36;;;;;;;3.57;1.10;;;;;;;;;;1764377;79;21042;-76
2022/12/19 02:14:03;;;;;;;5.87;2.17;;;;;;;;;;1742516;79;21036;-77
2022/12/19 02:16:41;;;;;;;4.80;1.57;;;;;;;;;;1763720;79;22519;-77
2022/12/19 02:19:23;;;;;;;3.53;1.40;;;;;;;;;;1732608;79;22007;-76
2022/12/19 02:21:59;;;;;;;4.67;1.20;;;;;;;;;;1756500;79;21036;-77
2022/12/19 02:24:38;;;;;;;4.30;1.20;;;;;;;;;;1761348;79;22052;-76
2022/12/19 02:27:27;;;;;;;4.40;1.27;;;;;;;;;;1763860;79;21053;-76
2022/12/19 02:30:09;;;;;;;4.33;1.37;;;;;;;;;;1767868;79;21815;-76
2022/12/19 02:32:55;;;;;;;5.13;1.20;;;;;;;;;;1769467;79;21067;-75
2022/12/19 02:35:31;;;;;;;1.90;0.93;;;;;;;;;;1762182;79;21038;-76
2022/12/19 02:38:16;;;;;;;3.60;1.10;;;;;;;;;;1756909;79;21119;-76
2022/12/19 02:41:07;;;;;;;4.33;1.30;;;;;;;;;;1759969;79;21554;-76
2022/12/19 02:43:36;;;;;;;3.63;1.50;;;;;;;;;;1765092;79;22234;-75
2022/12/19 02:46:03;;;;;;;4.10;1.17;;;;;;;;;;1737807;80;21048;-76
2022/12/19 02:48:29;;;;;;;3.63;1.27;;;;;;;;;;1735771;79;21048;-76
2022/12/19 02:50:57;;;;;;;2.10;0.77;;;;;;;;;;1717865;79;21286;-76
2022/12/19 02:53:23;;;;;;;3.87;1.00;;;;;;;;;;1759917;79;21659;-76
2022/12/19 02:56:27;;;;;;;3.67;1.30;;;;;;;;;;1754974;79;21404;-77
2022/12/19 02:59:19;;;;;;;1.60;0.80;;;;;;;;;;1764121;79;21059;-77
2022/12/19 03:02:04;;;;;;;3.90;1.10;;;;;;;;;;1671682;83;21207;-77
2022/12/19 03:04:41;;;;;;;1.43;0.73;;;;;;;;;;1744715;79;22424;-76
2022/12/19 03:07:30;;;;;;;2.17;1.07;;;;;;;;;;1754523;79;21318;-76
2022/12/19 03:10:19;;;;;;;3.10;0.93;;;;;;;;;;1759265;79;21972;-76
2022/12/19 03:12:54;;;;;;;1.70;0.80;;;;;;;;;;1758085;79;21060;-76
2022/12/19 03:15:21;;;;;;;2.20;0.80;;;;;;;;;;1767525;79;21032;-76
2022/12/19 03:17:47;;;;;;;4.07;1.13;;;;;;;;;;1758202;79;21080;-75
2022/12/19 03:20:40;;;;;;;3.37;1.30;;;;;;;;;;1765978;79;21095;-75
2022/12/19 03:23:06;;;;;;;2.30;1.27;;;;;;;;;;1716457;81;21049;-75
2022/12/19 03:25:32;;;;;;;3.10;0.80;;;;;;;;;;1757427;79;21275;-75
2022/12/19 03:28:04;;;;;;;2.50;1.00;;;;;;;;;;1764783;79;21115;-75
2022/12/19 03:30:30;;;;;;;2.70;0.83;;;;;;;;;;1758632;79;21053;-75
2022/12/19 03:32:56;;;;;;;3.27;1.13;;;;;;;;;;1759115;79;21068;-75
2022/12/19 03:35:25;;;;;;;4.20;1.10;;;;;;;;;;1758806;79;21767;-76
2022/12/19 03:37:51;;;;;;;4.37;0.90;;;;;;;;;;1758423;79;20989;-76
2022/12/19 03:40:19;;;;;;;2.03;0.97;;;;;;;;;;1761446;79;20978;-75
2022/12/19 03:45:41;;;;;;;3.27;1.97;;;;;;;;;;1759558;79;21036;-76
2022/12/19 03:48:10;;;;;;;3.73;0.80;;;;;;;;;;1757364;79;21846;-76
2022/12/19 03:50:40;;;;;;;3.07;1.00;;;;;;;;;;1764245;79;21107;-76
2022/12/19 03:53:28;;;;;;;1.67;0.83;;;;;;;;;;1766566;79;21497;-76
2022/12/19 03:56:03;;;;;;;3.30;0.90;;;;;;;;;;1762558;79;21899;-76
2022/12/19 03:58:32;;;;;;;3.30;1.20;;;;;;;;;;1761204;79;21092;-76
2022/12/19 04:00:59;;;;;;;2.93;1.07;;;;;;;;;;1759663;79;21835;-76
2022/12/19 04:03:26;;;;;;;2.10;1.10;;;;;;;;;;1763326;79;21033;-76
2022/12/19 04:05:52;;;;;;;3.07;0.80;;;;;;;;;;1762904;79;21053;-76
2022/12/19 04:08:19;;;;;;;4.37;1.00;;;;;;;;;;1759376;79;21076;-76
2022/12/19 04:10:54;;;;;;;3.47;0.80;;;;;;;;;;1759401;79;21377;-76
2022/12/19 04:13:23;;;;;;;3.87;1.07;;;;;;;;;;1761755;79;22267;-76
2022/12/19 04:15:59;;;;;;;5.63;1.10;;;;;;;;;;1756630;79;21049;-76
2022/12/19 04:18:25;;;;;;;3.87;0.93;;;;;;;;;;1758071;79;21270;-75
2022/12/19 04:21:04;;;;;;;4.03;1.50;;;;;;;;;;1759852;79;21548;-75
2022/12/19 04:23:33;;;;;;;3.10;1.00;;;;;;;;;;1758174;79;21097;-76
2022/12/19 04:26:01;;;;;;;3.73;1.47;;;;;;;;;;1763749;79;22541;-76
2022/12/19 04:28:43;;;;;;;5.03;1.43;;;;;;;;;;1759032;79;21020;-76
2022/12/19 04:31:13;;;;;;;3.27;1.40;;;;;;;;;;1754655;79;21024;-76
2022/12/19 04:33:39;;;;;;;3.83;2.27;;;;;;;;;;1736410;79;21026;-76
2022/12/19 04:36:09;;;;;;;4.27;1.40;;;;;;;;;;1761821;79;21024;-76
2022/12/19 04:38:35;;;;;;;7.53;1.23;;;;;;;;;;1740012;79;21900;-76
2022/12/19 04:41:01;;;;;;;4.13;1.30;;;;;;;;;;1766288;79;21542;-76
2022/12/19 04:43:27;;;;;;;5.83;1.97;;;;;;;;;;1764342;79;21314;-76
2022/12/19 04:45:53;;;;;;;4.20;1.20;;;;;;;;;;1760616;79;21659;-76
2022/12/19 04:48:19;;;;;;;4.47;1.73;;;;;;;;;;1760157;79;21056;-76
2022/12/19 04:50:46;;;;;;;5.10;1.60;;;;;;;;;;1763568;79;22948;-76
2022/12/19 04:53:13;;;;;;;6.10;1.83;;;;;;;;;;1757050;79;21009;-75
2022/12/19 04:55:40;;;;;;;6.47;1.80;;;;;;;;;;1760943;79;21357;-76
2022/12/19 04:58:06;;;;;;;4.57;1.67;;;;;;;;;;1763690;79;21036;-76
2022/12/19 05:00:32;;;;;;;6.67;2.40;;;;;;;;;;1763699;79;21069;-75
2022/12/19 05:02:58;;;;;;;3.30;1.60;;;;;;;;;;1763336;79;23098;-75
2022/12/19 05:05:25;;;;;;;9.20;1.90;;;;;;;;;;1759877;79;21509;-76
2022/12/19 05:07:51;;;;;;;4.67;1.60;;;;;;;;;;1761112;79;21037;-76
2022/12/19 05:10:18;;;;;;;6.50;2.10;;;;;;;;;;1762382;79;21402;-76
2022/12/19 05:12:44;;;;;;;5.87;3.10;;;;;;;;;;1765087;79;21088;-76
2022/12/19 05:15:10;;;;;;;6.13;2.13;;;;;;;;;;1758814;79;22416;-76
2022/12/19 05:17:36;;;;;;;6.97;2.03;;;;;;;;;;1767120;79;21050;-76
2022/12/19 05:20:04;;;;;;;6.03;2.50;;;;;;;;;;1762131;79;21344;-76
2022/12/19 05:22:30;;;;;;;4.97;1.33;;;;;;;;;;1763406;79;21425;-76
2022/12/19 05:24:56;;;;;;;6.27;1.80;;;;;;;;;;1762655;79;21040;-76
2022/12/19 05:27:22;;;;;;;3.33;1.50;;;;;;;;;;1761039;79;21790;-76
2022/12/19 05:29:49;;;;;;;5.40;1.90;;;;;;;;;;1767500;79;21097;-76
2022/12/19 05:32:15;;;;;;;5.80;2.00;;;;;;;;;;1762379;79;21080;-75
2022/12/19 05:34:41;;;;;;;4.83;1.60;;;;;;;;;;1763478;79;21044;-76
2022/12/19 05:37:07;;;;;;;5.57;1.87;;;;;;;;;;1762892;79;21115;-76
2022/12/19 05:39:33;;;;;;;7.93;1.30;;;;;;;;;;1763159;79;23225;-76
2022/12/19 05:42:00;;;;;;;6.93;3.07;;;;;;;;;;1770913;79;21046;-76
2022/12/19 05:44:26;;;;;;;5.13;1.53;;;;;;;;;;1761589;79;21029;-76
2022/12/19 05:46:52;;;;;;;4.93;1.93;;;;;;;;;;1767689;79;21068;-76
2022/12/19 05:49:19;;;;;;;4.33;2.13;;;;;;;;;;1765787;79;21051;-76
2022/12/19 05:51:45;;;;;;;7.40;2.43;;;;;;;;;;1767158;79;23668;-76
2022/12/19 05:54:12;;;;;;;8.07;2.37;;;;;;;;;;1766691;79;21497;-76
2022/12/19 05:56:38;;;;;;;7.10;2.27;;;;;;;;;;1767960;79;21008;-76
2022/12/19 05:59:04;;;;;;;8.10;2.43;;;;;;;;;;1767282;79;21092;-75
2022/12/19 06:01:31;;;;;;;7.00;2.67;;;;;;;;;;1769962;79;21064;-76
2022/12/19 06:03:57;;;;;;;6.10;2.20;;;;;;;;;;1768551;79;22565;-76
2022/12/19 06:06:24;;;;;;;7.23;3.30;;;;;;;;;;1762950;79;21030;-76
2022/12/19 06:08:54;;;;;;;6.83;2.53;;;;;;;;;;1763169;79;22284;-77
2022/12/19 06:11:20;;;;;;;7.07;2.47;;;;;;;;;;1764876;79;21530;-76
2022/12/19 06:13:46;;;;;;;8.07;2.90;;;;;;;;;;1767689;79;21133;-76
2022/12/19 06:16:14;;;;;;;8.40;3.43;;;;;;;;;;1770767;79;22863;-76
2022/12/19 06:18:40;;;;;;;7.30;2.60;;;;;;;;;;1767040;79;21794;-81
2022/12/19 06:21:10;;;;;;;11.10;4.60;;;;;;;;;;1772109;79;21033;-77
2022/12/19 06:23:36;;;;;;;9.03;3.47;;;;;;;;;;1762773;79;21048;-78
2022/12/19 06:26:03;;;;;;;8.33;3.10;;;;;;;;;;1763438;79;21149;-78
2022/12/19 06:28:30;;;;;;;9.83;4.07;;;;;;;;;;1765378;79;21818;-78
2022/12/19 06:30:57;;;;;;;9.13;4.43;;;;;;;;;;1764134;79;21041;-79
2022/12/19 06:33:24;;;;;;;11.20;4.53;;;;;;;;;;1769715;79;20965;-77
2022/12/19 06:36:02;;;;;;;10.00;4.50;;;;;;;;;;1767470;79;21084;-77
2022/12/19 06:38:28;;;;;;;8.67;4.30;;;;;;;;;;1763653;79;21405;-77
2022/12/19 06:43:39;;;;;;;8.28;3.85;;;;;;;;;;1770927;79;21433;-76
2022/12/19 06:46:06;;;;;;;11.20;4.80;;;;;;;;;;1764601;79;21060;-76
2022/12/19 06:48:32;;;;;;;8.30;4.17;;;;;;;;;;1760911;79;21072;-77
2022/12/19 06:50:59;;;;;;;11.60;3.33;;;;;;;;;;1764442;79;21120;-76
2022/12/19 06:53:25;;;;;;;6.43;3.73;;;;;;;;;;1761150;79;22203;-77
2022/12/19 06:55:53;;;;;;;8.80;4.37;;;;;;;;;;1761382;80;21430;-76
2022/12/19 06:58:19;;;;;;;8.70;3.20;;;;;;;;;;1770281;79;21072;-76
2022/12/19 07:00:45;;;;;;;5.73;2.97;;;;;;;;;;1766203;79;21584;-77
2022/12/19 07:03:12;;;;;;;10.00;4.03;;;;;;;;;;1763679;79;21053;-77
2022/12/19 07:05:39;;;;;;;7.33;3.03;;;;;;;;;;1767773;79;21026;-77
2022/12/19 07:08:06;;;;;;;7.50;4.13;;;;;;;;;;1760505;80;21088;-76
2022/12/19 07:10:32;;;;;;;7.07;2.13;;;;;;;;;;1763118;79;22356;-77
2022/12/19 07:12:58;;;;;;;8.17;3.33;;;;;;;;;;1760955;79;21077;-76
2022/12/19 07:15:24;;;;;;;5.37;3.17;;;;;;;;;;1761702;79;21403;-77
2022/12/19 07:17:50;;;;;;;7.57;2.77;;;;;;;;;;1764642;79;21817;-76
2022/12/19 07:20:17;;;;;;;8.50;3.60;;;;;;;;;;1764822;79;21060;-76
2022/12/19 07:22:43;;;;;;;9.53;3.97;;;;;;;;;;1766588;79;21413;-76
2022/12/19 07:25:11;;;;;;;9.47;3.93;;;;;;;;;;1761098;79;21092;-77
2022/12/19 07:27:37;;;;;;;10.30;5.73;;;;;;;;;;1763284;79;21058;-77
2022/12/19 07:30:04;;;;;;;6.20;3.30;;;;;;;;;;1757923;79;21813;-77
2022/12/19 07:32:32;;;;;;;9.00;3.57;;;;;;;;;;1761486;79;21049;-77
2022/12/19 07:34:58;;;;;;;10.37;3.93;;;;;;;;;;1763720;79;21056;-77
2022/12/19 07:37:24;;;;;;;8.40;3.87;;;;;;;;;;1762031;79;21111;-77
2022/12/19 07:39:51;;;;;;;10.47;4.20;;;;;;;;;;1755637;79;21081;-77
2022/12/19 07:42:18;;;;;;;10.07;3.93;;;;;;;;;;1759020;79;22285;-77
2022/12/19 07:44:44;;;;;;;6.50;3.30;;;;;;;;;;1761045;79;22135;-77
2022/12/19 07:47:10;;;;;;;7.33;3.00;;;;;;;;;;1761741;79;21085;-77
2022/12/19 07:49:36;;;;;;;8.30;3.07;;;;;;;;;;1755910;79;21033;-77
2022/12/19 07:52:03;;;;;;;9.03;3.60;;;;;;;;;;1763854;79;21673;-77
2022/12/19 07:54:30;;;;;;;6.67;2.77;;;;;;;;;;1764113;79;21822;-77
2022/12/19 07:56:56;;;;;;;8.90;3.20;;;;;;;;;;1767842;79;21104;-77
2022/12/19 07:59:22;;;;;;;9.93;4.20;;;;;;;;;;1758316;79;21080;-77
2022/12/19 08:01:48;;;;;;;7.60;3.63;;;;;;;;;;1758329;79;21088;-77
2022/12/19 08:04:14;;;;;;;7.33;2.80;;;;;;;;;;1764721;79;21087;-78
2022/12/19 08:06:40;;;;;;;10.17;3.83;;;;;;;;;;1763728;79;23323;-77
2022/12/19 08:09:07;;;;;;;7.93;2.60;;;;;;;;;;1761209;79;21592;-77
2022/12/19 08:11:33;;;;;;;8.83;3.07;;;;;;;;;;1760866;79;21065;-77
2022/12/19 08:14:00;;;;;;;5.00;2.07;;;;;;;;;;1760806;79;21601;-77
2022/12/19 08:16:26;;;;;;;6.77;2.97;;;;;;;;;;1761115;79;21632;-77
2022/12/19 08:18:54;;;;;;;6.53;2.83;;;;;;;;;;1761456;79;21830;-77
2022/12/19 08:21:20;;;;;;;6.70;2.93;;;;;;;;;;1759542;79;21032;-77
2022/12/19 08:23:46;;;;;;;4.53;1.90;;;;;;;;;;1765446;79;21107;-77
2022/12/19 08:26:15;;;;;;;6.17;2.23;;;;;;;;;;1756333;79;21056;-77
2022/12/19 08:28:41;;;;;;;7.17;2.83;;;;;;;;;;1763883;79;21021;-77
2022/12/19 08:31:10;;;;;;;6.40;3.10;;;;;;;;;;1760327;79;22168;-77
2022/12/19 08:33:36;;;;;;;6.47;2.63;;;;;;;;;;1754385;79;22002;-77
2022/12/19 08:36:08;;;;;;;3.70;2.07;;;;;;;;;;1763643;79;21047;-77
2022/12/19 08:38:35;;;;;;;6.37;2.83;;;;;;;;;;1761901;79;21523;-77
2022/12/19 08:41:02;;;;;;;8.77;3.70;;;;;;;;;;1766581;79;21052;-77
2022/12/19 08:43:29;;;;;;;4.57;2.23;;;;;;;;;;1765042;79;21827;-77
2022/12/19 08:45:55;;;;;;;8.23;3.67;;;;;;;;;;1756926;79;21069;-77
2022/12/19 08:48:22;;;;;;;7.90;3.93;;;;;;;;;;1770169;79;21024;-77
2022/12/19 08:50:53;;;;;;;8.00;2.73;;;;;;;;;;1774526;79;21568;-77
2022/12/19 08:53:19;;;;;;;10.00;3.97;;;;;;;;;;1769480;79;21087;-77
2022/12/19 08:55:46;;;;;;;8.73;3.93;;;;;;;;;;1767211;79;21842;-78
2022/12/19 08:58:12;;;;;;;10.43;2.93;;;;;;;;;;1767021;79;21076;-77
2022/12/19 09:00:39;;;;;;;6.77;3.07;;;;;;;;;;1766694;79;21950;-77
2022/12/19 09:03:05;;;;;;;6.17;2.13;;;;;;;;;;1768479;79;21057;-77
2022/12/19 09:05:31;;;;;;;7.67;2.23;;;;;;;;;;1770705;79;21056;-77
2022/12/19 09:07:57;;;;;;;7.17;3.17;;;;;;;;;;1770455;79;21896;-79
2022/12/19 09:10:23;;;;;;;8.50;3.83;;;;;;;;;;1769827;79;21065;-79
2022/12/19 09:12:51;;;;;;;7.73;3.40;;;;;;;;;;1771306;79;21080;-79
2022/12/19 09:15:17;;;;;;;7.80;3.60;;;;;;;;;;1772142;79;21087;-81
2022/12/19 09:17:43;;;;;;;7.10;3.00;;;;;;;;;;1772473;79;21048;-78
2022/12/19 09:20:10;;;;;;;6.20;3.03;;;;;;;;;;1769706;79;22524;-78
2022/12/19 09:22:37;;;;;;;8.37;4.30;;;;;;;;;;1769419;79;21067;-77
2022/12/19 09:25:03;;;;;;;7.67;3.27;;;;;;;;;;1773757;79;21541;-80
2022/12/19 09:27:30;;;;;;;9.33;3.77;;;;;;;;;;1766528;79;21282;-78
2022/12/19 09:29:56;;;;;;;13.27;5.47;;;;;;;;;;1750544;79;21040;-82
2022/12/19 09:32:22;;;;;;;6.97;2.97;;;;;;;;;;1768504;79;21802;-78
2022/12/19 09:34:48;;;;;;;5.60;2.60;;;;;;;;;;1770351;79;21040;-79
2022/12/19 09:37:14;;;;;;;6.40;2.93;;;;;;;;;;1695790;82;21133;-79
2022/12/19 09:39:40;;;;;;;7.43;3.10;;;;;;;;;;1699692;82;22091;-79
2022/12/19 09:42:29;;;;;;;8.27;4.03;;;;;;;;;;1731228;80;21125;-79
2022/12/19 09:44:58;;;;;;;7.30;3.40;;;;;;;;;;1733365;80;21793;-80
2022/12/19 09:47:28;;;;;;;8.30;4.00;;;;;;;;;;1723442;81;21037;-78
2022/12/19 09:49:54;;;;;;;6.17;3.13;;;;;;;;;;1757934;79;21056;-78
2022/12/19 09:52:24;;;;;;;7.77;3.30;;;;;;;;;;1764391;79;21716;-78
2022/12/19 09:54:52;;;;;;;9.53;4.77;;;;;;;;;;1761061;79;21045;-78
2022/12/19 09:57:38;;;;;;;10.90;4.50;;;;;;;;;;1741120;79;21859;-78
2022/12/19 10:00:13;;;;;;;10.10;4.50;;;;;;;;;;1764118;79;21092;-78
2022/12/19 10:02:48;;;;;;;12.77;5.57;;;;;;;;;;1760665;79;21520;-79
2022/12/19 10:05:27;;;;;;;12.60;4.93;;;;;;;;;;1765154;79;21624;-78
2022/12/19 10:07:53;;;;;;;15.43;5.97;;;;;;;;;;1757534;79;21026;-79
2022/12/19 10:10:38;;;;;;;13.03;5.37;;;;;;;;;;1757185;79;22036;-78
2022/12/19 10:13:10;;;;;;;10.20;5.08;;;;;;;;;;1758784;79;21117;-79
2022/12/19 10:16:05;;;;;;;7.90;4.23;;;;;;;;;;1757152;79;21049;-79
2022/12/19 10:18:52;;;;;;;9.77;4.97;;;;;;;;;;1722212;81;21688;-79
2022/12/19 10:21:28;;;;;;;10.60;3.80;;;;;;;;;;1760338;79;21051;-78
2022/12/19 10:24:10;;;;;;;10.00;3.77;;;;;;;;;;1693157;79;21996;-78
2022/12/19 10:26:43;;;;;;;8.50;4.13;;;;;;;;;;1758020;79;21067;-78
2022/12/19 10:29:40;;;;;;;10.00;3.83;;;;;;;;;;1763540;79;21056;-79
2022/12/19 10:32:16;;;;;;;7.83;3.40;;;;;;;;;;1762168;79;21068;-78
2022/12/19 10:34:44;;;;;;;9.40;3.27;;;;;;;;;;1760367;79;21045;-78
2022/12/19 10:37:23;;;;;;;11.20;4.03;;;;;;;;;;1760331;79;22150;-78
2022/12/19 10:40:11;;;;;;;8.53;3.60;;;;;;;;;;1758202;79;21068;-78
2022/12/19 10:42:50;;;;;;;9.17;4.40;;;;;;;;;;1764030;79;21092;-77
2022/12/19 10:45:18;;;;;;;6.53;3.63;;;;;;;;;;1714372;79;21052;-78
2022/12/19 10:47:46;;;;;;;12.57;5.00;;;;;;;;;;1761981;79;21037;-76
2022/12/19 10:50:15;;;;;;;10.47;5.23;;;;;;;;;;1768135;79;21806;-78
2022/12/19 10:52:47;;;;;;;10.23;5.33;;;;;;;;;;1761289;79;22006;-78
2022/12/19 10:55:33;;;;;;;7.97;4.13;;;;;;;;;;1766017;79;21049;-77
2022/12/19 10:58:02;;;;;;;10.43;4.00;;;;;;;;;;1758549;79;21268;-78
2022/12/19 11:01:11;;;;;;;5.43;3.03;;;;;;;;;;1796938;78;27406;-48
2022/12/19 11:03:41;;;;;;;6.60;3.70;;;;;;;;;;1766842;78;21106;-50
2022/12/19 11:06:28;;;;;;;9.57;4.33;;;;;;;;;;1773415;78;21841;-49
2022/12/19 11:08:54;;;;;;;9.97;3.30;;;;;;;;;;1770073;78;21436;-49
2022/12/19 11:11:20;;;;;;;8.37;4.40;;;;;;;;;;1723407;80;21096;-49
2022/12/19 11:13:48;;;;;;;8.23;3.63;;;;;;;;;;1743239;80;21061;-50
2022/12/19 11:16:22;;;;;;;6.70;3.23;;;;;;;;;;1772889;78;21430;-49
2022/12/19 11:18:48;;;;;;;10.13;4.47;;;;;;;;;;1745497;79;21302;-48
2022/12/19 11:21:20;;;;;;;10.03;5.10;;;;;;;;;;1764956;78;21511;-48
2022/12/19 11:24:02;;;;;;;8.67;4.47;;;;;;;;;;1768938;79;21050;-49
2022/12/19 11:26:36;;;;;;;9.63;4.67;;;;;;;;;;1772739;79;21880;-51
2022/12/19 11:29:04;;;;;;;10.53;5.23;;;;;;;;;;1770439;79;21041;-49
2022/12/19 11:31:31;;;;;;;11.53;5.23;;;;;;;;;;1771638;79;21963;-51
2022/12/19 11:34:03;;;;;;;7.83;3.80;;;;;;;;;;1719047;80;21061;-50
2022/12/19 11:36:44;;;;;;;6.93;3.43;;;;;;;;;;1764265;78;21182;-49
2022/12/19 11:39:26;;;;;;;10.73;4.53;;;;;;;;;;1772023;78;21129;-49
2022/12/19 11:42:02;;;;;;;9.23;4.30;;;;;;;;;;1768880;78;21040;-49
2022/12/19 11:44:42;;;;;;;11.30;4.97;;;;;;;;;;1740710;80;21847;-49
2022/12/19 11:47:31;;;;;;;9.27;4.67;;;;;;;;;;1753012;80;21060;-50
2022/12/19 11:50:03;;;;;;;9.10;4.77;;;;;;;;;;1747145;80;21483;-49
2022/12/19 11:52:59;;;;;;;10.57;5.40;;;;;;;;;;1751935;80;21069;-49
2022/12/19 11:55:37;;;;;;;10.20;4.60;;;;;;;;;;1705216;81;21525;-49
2022/12/19 11:58:03;;;;;;;8.97;4.37;;;;;;;;;;1703264;83;23816;-49
2022/12/19 12:00:29;;;;;;;5.50;3.20;;;;;;;;;;1692244;83;21551;-49
2022/12/19 12:03:31;;;;;;;5.37;3.37;;;;;;;;;;1686403;83;21059;-48
2022/12/19 12:05:57;;;;;;;5.70;2.20;;;;;;;;;;1676895;84;21592;-48
2022/12/19 12:08:44;;;;;;;6.50;2.77;;;;;;;;;;1736763;80;21043;-49
2022/12/19 12:11:22;;;;;;;6.47;2.93;;;;;;;;;;1737357;80;23717;-49
2022/12/19 12:13:53;;;;;;;11.33;3.80;;;;;;;;;;1735332;80;21046;-49
2022/12/19 12:16:19;;;;;;;6.53;2.70;;;;;;;;;;1739054;80;21114;-48
2022/12/19 12:19:01;;;;;;;4.33;2.10;;;;;;;;;;1735682;80;21077;-48
2022/12/19 12:21:36;;;;;;;7.17;2.97;;;;;;;;;;1723484;80;21449;-48
2022/12/19 12:24:22;;;;;;;5.53;2.80;;;;;;;;;;1732059;80;21754;-48
2022/12/19 12:26:58;;;;;;;7.10;2.77;;;;;;;;;;1733526;80;21028;-49
2022/12/19 12:29:26;;;;;;;5.00;2.10;;;;;;;;;;1732914;80;20995;-48
2022/12/19 12:32:08;;;;;;;6.27;2.30;;;;;;;;;;1738968;80;20987;-48
2022/12/19 12:34:38;;;;;;;4.93;1.80;;;;;;;;;;1735864;80;21065;-48
2022/12/19 12:37:11;;;;;;;4.17;1.60;;;;;;;;;;1736376;80;22511;-48
2022/12/19 12:39:56;;;;;;;5.30;2.50;;;;;;;;;;1736940;80;21068;-48
2022/12/19 12:42:27;;;;;;;;;;;;;;;;;;1734411;80;21066;-48
2022/12/19 12:44:54;;;;;;;6.90;2.87;;;;;;;;;;1734825;80;20224;-49
2022/12/19 12:47:23;;;;;;;7.90;3.10;;;;;;;;;;1733054;80;20994;-49
2022/12/19 12:50:00;;;;;;;5.80;2.90;;;;;;;;;;1735507;80;21868;-49
2022/12/19 12:52:36;;;;;;;4.93;2.53;;;;;;;;;;1726225;80;20998;-49
2022/12/19 12:55:15;;;;;;;5.70;2.67;;;;;;;;;;1743082;80;21034;-49
2022/12/19 12:57:41;;;;;;;7.93;2.20;;;;;;;;;;1666221;83;20982;-49
2022/12/19 13:00:23;;;;;;;3.93;2.27;;;;;;;;;;1738886;80;21063;-49
2022/12/19 13:02:57;;;;;;;5.13;2.30;;;;;;;;;;1736105;80;22832;-49
2022/12/19 13:05:51;;;;;;;5.53;2.33;;;;;;;;;;1724623;80;22275;-49
2022/12/19 13:08:39;;;;;;;8.50;2.93;;;;;;;;;;1697446;81;21118;-49
2022/12/19 13:12:58;;;;;;;8.43;2.20;;;;;;;;;;1736741;80;21626;-49
2022/12/19 16:53:33;;;;;;;115.60;49.87;;;;;;;;;;1861858;76;27377;-47
2022/12/19 16:56:00;;;;;;;99.43;42.20;;;;;;;;;;1829200;77;21010;-47
2022/12/19 16:58:27;;;;;;;73.77;28.10;;;;;;;;;;1829980;77;21713;-47
2022/12/19 17:00:57;;;;;;;60.13;22.30;;;;;;;;;;1827647;77;21008;-46
2022/12/19 17:03:33;;;;;;;37.30;13.20;;;;;;;;;;1837135;77;21577;-47
2022/12/19 17:06:00;;;;;;;46.27;17.47;;;;;;;;;;1829281;77;21016;-48
2022/12/19 17:08:26;;;;;;;34.63;14.87;;;;;;;;;;1830953;77;22114;-47
2022/12/19 17:10:52;;;;;;;30.47;13.37;;;;;;;;;;1825527;77;21788;-48
2022/12/19 17:13:19;;;;;;;31.67;12.30;;;;;;;;;;1821409;77;21055;-48
2022/12/19 17:15:46;;;;;;;25.90;10.57;;;;;;;;;;1832127;76;21497;-49
2022/12/19 17:18:18;;;;;;;34.77;12.10;;;;;;;;;;1821087;76;21729;-47
2022/12/19 17:20:45;;;;;;;27.87;10.83;;;;;;;;;;1827867;76;21021;-52
2022/12/19 17:23:16;;;;;;;25.70;11.37;;;;;;;;;;1826881;77;22648;-47
2022/12/19 17:25:43;;;;;;;28.17;13.10;;;;;;;;;;1825973;76;21697;-49
2022/12/19 17:28:10;;;;;;;35.97;13.53;;;;;;;;;;1831131;76;21080;-47
2022/12/19 17:30:36;;;;;;;28.33;13.63;;;;;;;;;;1830274;76;21057;-50
2022/12/19 17:33:02;;;;;;;32.77;14.03;;;;;;;;;;1831536;77;21177;-47
2022/12/19 17:35:30;;;;;;;38.63;16.23;;;;;;;;;;1832252;76;21911;-48
2022/12/19 17:37:57;;;;;;;33.37;15.27;;;;;;;;;;1832325;77;21049;-48
2022/12/19 17:40:26;;;;;;;43.53;18.60;;;;;;;;;;1827150;77;21025;-50
2022/12/19 17:42:53;;;;;;;38.60;18.87;;;;;;;;;;1794244;77;21055;-48
2022/12/19 17:45:21;;;;;;;44.83;19.93;;;;;;;;;;1794024;78;21632;-50
2022/12/19 17:47:47;;;;;;;41.40;18.43;;;;;;;;;;1756753;80;21831;-47
2022/12/19 17:50:19;;;;;;;33.97;17.60;;;;;;;;;;1778424;79;20978;-50
2022/12/19 17:52:46;;;;;;;32.97;15.20;;;;;;;;;;1760035;80;21121;-47
2022/12/19 17:55:19;;;;;;;37.93;16.10;;;;;;;;;;1781669;79;21055;-47
2022/12/19 17:57:45;;;;;;;38.23;15.63;;;;;;;;;;1780712;80;21597;-46
2022/12/19 18:00:12;;;;;;;38.43;17.30;;;;;;;;;;1776432;79;21833;-51
2022/12/19 18:02:38;;;;;;;39.20;19.50;;;;;;;;;;1758683;80;22424;-47
2022/12/19 18:05:05;;;;;;;53.03;28.37;;;;;;;;;;1756542;80;21397;-48
2022/12/19 18:07:32;;;;;;;54.63;25.20;;;;;;;;;;1755109;80;21060;-48
2022/12/19 18:09:58;;;;;;;44.00;22.33;;;;;;;;;;1771073;79;21551;-50
2022/12/19 18:12:24;;;;;;;45.93;19.83;;;;;;;;;;1773814;79;21840;-46
2022/12/19 18:14:51;;;;;;;38.80;19.07;;;;;;;;;;1754162;80;21056;-47
2022/12/19 18:17:23;;;;;;;33.40;16.10;;;;;;;;;;1722090;81;21063;-50
2022/12/19 18:19:49;;;;;;;36.00;17.70;;;;;;;;;;1749205;80;21123;-49
2022/12/19 18:22:15;;;;;;;32.03;14.87;;;;;;;;;;1721111;81;21080;-48
2022/12/19 18:24:41;;;;;;;33.77;14.60;;;;;;;;;;1776516;79;22448;-51
2022/12/19 18:27:08;;;;;;;30.10;14.57;;;;;;;;;;1777457;79;21477;-47
2022/12/19 18:29:34;;;;;;;34.17;17.27;;;;;;;;;;1777291;79;21013;-47
2022/12/19 18:32:00;;;;;;;47.67;22.67;;;;;;;;;;1779136;79;21095;-49
2022/12/19 18:34:28;;;;;;;39.77;20.43;;;;;;;;;;1755031;79;21061;-50
2022/12/19 18:36:54;;;;;;;45.00;21.93;;;;;;;;;;1772777;79;22322;-49
2022/12/19 18:39:23;;;;;;;45.07;20.67;;;;;;;;;;1779409;79;21515;-46
2022/12/19 18:41:50;;;;;;;44.73;20.63;;;;;;;;;;1776857;79;21075;-47
2022/12/19 18:44:16;;;;;;;38.73;19.27;;;;;;;;;;1760798;79;21102;-48